Time;durP1;ratioP1;P1;durP2;ratioP2;P2;SDS_P1;SDS_P2;PMS_P1;PMS_P2;Temp;Humidity;BMP_temperature;BMP_pressure;BME280_temperature;BME280_humidity;BME280_pressure;Samples;Min_cycle;Max_cycle;Signal;HPM_P1;HPM_P2
2023/02/13 05:00:36;;;;;;;6.65;4.88;;;7.20;99.90;;;;;;5787331;23;20354;-68
2023/02/13 05:03:06;;;;;;;3.88;2.60;;;7.20;99.90;;;;;;4926954;29;20205;-67
2023/02/13 05:05:32;;;;;;;4.90;3.08;;;7.20;99.90;;;;;;4930917;29;20267;-69
2023/02/13 05:07:59;;;;;;;11.55;4.55;;;7.20;99.90;;;;;;4929141;29;20570;-67
2023/02/13 05:10:26;;;;;;;3.38;3.17;;;7.20;99.90;;;;;;4928002;29;20209;-67
2023/02/13 05:12:53;;;;;;;5.50;4.43;;;7.20;99.90;;;;;;4928022;29;20220;-66
2023/02/13 05:15:21;;;;;;;5.30;3.28;;;7.20;99.90;;;;;;4930688;29;20213;-68
2023/02/13 05:17:49;;;;;;;4.18;3.38;;;7.20;99.90;;;;;;4929556;29;20629;-67
2023/02/13 05:20:17;;;;;;;6.18;4.97;;;7.20;99.90;;;;;;4930658;29;20217;-67
2023/02/13 05:25:28;;;;;;;6.35;3.50;;;7.20;99.90;;;;;;4925590;29;20223;-66
2023/02/13 05:27:55;;;;;;;5.60;2.63;;;7.20;99.90;;;;;;4927974;29;20208;-66
2023/02/13 05:30:21;;;;;;;12.13;3.83;;;7.20;99.90;;;;;;4930435;29;20210;-66
2023/02/13 05:32:50;;;;;;;3.37;3.07;;;7.20;99.90;;;;;;4930098;29;20215;-67
2023/02/13 05:35:17;;;;;;;6.50;5.65;;;7.20;99.90;;;;;;4930307;29;20215;-68
2023/02/13 05:37:44;;;;;;;3.53;2.55;;;7.20;99.90;;;;;;4924172;29;20314;-67
2023/02/13 05:40:14;;;;;;;4.50;4.10;;;7.20;99.90;;;;;;4924881;29;20212;-69
2023/02/13 05:42:41;;;;;;;8.90;5.03;;;7.20;99.90;;;;;;4930859;29;20212;-68
2023/02/13 05:45:08;;;;;;;2.47;2.28;;;7.20;99.90;;;;;;4931507;29;20692;-68
2023/02/13 05:47:35;;;;;;;3.42;3.15;;;7.20;99.90;;;;;;4929948;29;20215;-68
2023/02/13 05:50:04;;;;;;;4.68;4.22;;;7.20;99.90;;;;;;4929230;29;20212;-67
2023/02/13 05:52:30;;;;;;;3.88;2.30;;;7.20;99.90;;;;;;4928621;29;20371;-69
2023/02/13 05:54:57;;;;;;;3.65;3.35;;;7.20;99.90;;;;;;4929045;29;20207;-68
2023/02/13 05:57:23;;;;;;;3.42;2.78;;;7.20;99.90;;;;;;4930104;29;20235;-68
2023/02/13 05:59:50;;;;;;;4.68;4.30;;;7.20;99.90;;;;;;4923708;29;20214;-68
2023/02/13 06:02:17;;;;;;;2.28;1.95;;;7.20;99.90;;;;;;4927488;29;20590;-69
2023/02/13 06:04:44;;;;;;;2.85;2.75;;;7.20;99.90;;;;;;4930912;29;20215;-68
2023/02/13 06:07:12;;;;;;;4.50;3.28;;;7.20;99.90;;;;;;4929878;29;20552;-70
2023/02/13 06:09:38;;;;;;;4.53;3.65;;;7.10;99.90;;;;;;4929092;29;20220;-67
2023/02/13 06:12:05;;;;;;;4.15;3.85;;;7.10;99.90;;;;;;4928470;29;20685;-67
2023/02/13 06:14:32;;;;;;;3.30;3.10;;;7.10;99.90;;;;;;4930204;29;20219;-68
2023/02/13 06:17:00;;;;;;;3.90;2.25;;;7.10;99.90;;;;;;4930545;29;20254;-67
2023/02/13 06:19:27;;;;;;;7.20;4.07;;;7.10;99.90;;;;;;4931230;29;20208;-68
2023/02/13 06:21:54;;;;;;;4.28;3.17;;;7.20;99.90;;;;;;4930795;29;20244;-66
2023/02/13 06:24:22;;;;;;;3.42;2.53;;;7.10;99.90;;;;;;4930766;29;20209;-69
2023/02/13 06:26:49;;;;;;;4.43;3.85;;;7.10;99.90;;;;;;4932805;29;20626;-68
2023/02/13 06:29:15;;;;;;;2.63;2.42;;;7.10;99.90;;;;;;4932144;29;20212;-65
2023/02/13 06:31:42;;;;;;;5.13;2.97;;;7.20;99.90;;;;;;4934647;29;20236;-68
2023/02/13 06:34:09;;;;;;;6.28;1.63;;;7.10;99.90;;;;;;4933883;29;20215;-68
2023/02/13 06:36:36;;;;;;;4.10;3.80;;;7.10;99.90;;;;;;4932912;29;20227;-67
2023/02/13 06:39:03;;;;;;;5.13;3.38;;;7.10;99.90;;;;;;4935362;29;20681;-67
2023/02/13 06:41:31;;;;;;;4.57;4.07;;;7.10;99.90;;;;;;4933881;29;20225;-68
2023/02/13 06:43:58;;;;;;;6.22;4.10;;;7.10;99.90;;;;;;4932607;29;20215;-66
2023/02/13 06:46:24;;;;;;;8.07;4.45;;;7.10;99.90;;;;;;4933162;29;20223;-66
2023/02/13 06:48:51;;;;;;;8.15;4.15;;;7.10;99.90;;;;;;4931231;29;20740;-67
2023/02/13 06:51:18;;;;;;;4.20;2.92;;;7.10;99.90;;;;;;4925141;29;20227;-68
2023/02/13 06:53:45;;;;;;;8.00;5.22;;;7.10;99.90;;;;;;4934299;29;20862;-67
2023/02/13 06:56:11;;;;;;;6.10;4.50;;;7.10;99.90;;;;;;4934824;29;20235;-67
2023/02/13 06:58:39;;;;;;;3.28;3.08;;;7.10;99.90;;;;;;4933328;29;20220;-67
2023/02/13 07:01:06;;;;;;;3.65;2.90;;;7.10;99.90;;;;;;4931106;29;20306;-67
2023/02/13 07:03:33;;;;;;;5.28;2.75;;;7.10;99.90;;;;;;4931915;29;20212;-67
2023/02/13 07:05:59;;;;;;;2.00;1.90;;;7.10;99.90;;;;;;4932019;29;20222;-68
2023/02/13 07:08:26;;;;;;;3.72;2.53;;;7.10;99.90;;;;;;4932347;29;20223;-67
2023/02/13 07:10:53;;;;;;;4.03;3.63;;;7.20;99.90;;;;;;4932832;29;20321;-68
2023/02/13 07:13:19;;;;;;;5.65;3.00;;;7.10;99.90;;;;;;4933033;29;20685;-69
2023/02/13 07:15:47;;;;;;;2.78;2.58;;;7.10;99.90;;;;;;4933468;29;20219;-67
2023/02/13 07:18:14;;;;;;;8.70;3.10;;;7.10;99.90;;;;;;4931398;29;20235;-67
2023/02/13 07:20:41;;;;;;;22.10;11.48;;;7.10;99.90;;;;;;4933198;29;20330;-67
2023/02/13 07:23:07;;;;;;;10.52;6.13;;;7.10;99.90;;;;;;4935742;29;20634;-66
2023/02/13 07:25:35;;;;;;;6.15;5.55;;;7.20;99.90;;;;;;4933384;29;20208;-68
2023/02/13 07:28:02;;;;;;;5.43;4.97;;;7.20;99.90;;;;;;4933023;29;20279;-67
2023/02/13 07:30:30;;;;;;;5.95;3.22;;;7.10;99.90;;;;;;4933296;29;20246;-67
2023/02/13 07:33:00;;;;;;;9.98;3.33;;;7.20;99.90;;;;;;4930582;29;20906;-67
2023/02/13 07:35:27;;;;;;;3.38;2.88;;;7.20;99.90;;;;;;4931369;29;20244;-68
2023/02/13 07:37:54;;;;;;;6.38;3.03;;;7.10;99.90;;;;;;4933147;29;20228;-67
2023/02/13 07:40:20;;;;;;;10.27;4.50;;;7.20;99.90;;;;;;4932448;29;20215;-67
2023/02/13 07:42:47;;;;;;;5.95;3.75;;;7.20;99.90;;;;;;4932266;29;20660;-67
2023/02/13 07:45:14;;;;;;;14.57;5.63;;;7.20;99.90;;;;;;4933581;29;20216;-67
2023/02/13 07:47:41;;;;;;;8.82;5.57;;;7.20;99.90;;;;;;4932633;29;20702;-67
2023/02/13 07:50:10;;;;;;;10.10;6.22;;;7.20;99.90;;;;;;4932564;29;20231;-67
2023/02/13 07:52:37;;;;;;;6.57;4.78;;;7.30;99.90;;;;;;4930170;29;20910;-69
2023/02/13 07:55:06;;;;;;;16.10;6.20;;;7.20;99.90;;;;;;4931374;29;20230;-68
2023/02/13 07:57:33;;;;;;;5.47;4.93;;;7.30;99.90;;;;;;4930785;29;20229;-69
2023/02/13 08:00:00;;;;;;;14.45;5.97;;;7.30;99.90;;;;;;4928296;29;20579;-68
2023/02/13 08:02:27;;;;;;;9.07;5.60;;;7.30;99.90;;;;;;4933353;29;20248;-68
2023/02/13 08:04:53;;;;;;;4.78;4.45;;;7.30;99.90;;;;;;4933026;29;20291;-68
2023/02/13 08:07:21;;;;;;;5.28;4.80;;;7.30;99.90;;;;;;4934215;29;20323;-68
2023/02/13 08:12:35;;;;;;;5.07;3.10;;;7.30;99.90;;;;;;4932122;29;20255;-68
2023/02/13 08:15:02;;;;;;;7.82;5.78;;;7.30;99.90;;;;;;4929693;29;20220;-68
2023/02/13 08:17:29;;;;;;;8.65;4.20;;;7.30;99.90;;;;;;4926310;29;20235;-68
2023/02/13 08:19:56;;;;;;;5.50;4.03;;;7.40;99.90;;;;;;4931295;29;20211;-68
2023/02/13 08:22:24;;;;;;;7.10;4.70;;;7.40;99.90;;;;;;4928939;29;20230;-68
2023/02/13 08:24:51;;;;;;;6.57;4.72;;;7.40;99.90;;;;;;4928029;29;20294;-67
2023/02/13 08:27:17;;;;;;;9.10;5.15;;;7.30;99.90;;;;;;4933083;29;20301;-70
2023/02/13 08:29:44;;;;;;;7.53;6.85;;;7.40;99.90;;;;;;4933280;29;20212;-68
2023/02/13 08:32:11;;;;;;;8.00;5.50;;;7.40;99.90;;;;;;4933449;29;20247;-68
2023/02/13 08:34:38;;;;;;;7.95;3.40;;;7.40;99.90;;;;;;4931242;29;20216;-67
2023/02/13 08:37:04;;;;;;;8.15;4.30;;;7.50;99.90;;;;;;4924515;29;20228;-66
2023/02/13 08:39:33;;;;;;;6.25;5.25;;;7.50;99.90;;;;;;4927998;29;20558;-67
2023/02/13 08:41:59;;;;;;;11.48;4.57;;;7.50;99.90;;;;;;4924799;29;20232;-66
2023/02/13 08:44:26;;;;;;;3.13;2.53;;;7.50;99.90;;;;;;4932378;29;20679;-68
2023/02/13 08:46:53;;;;;;;11.35;5.53;;;7.50;99.90;;;;;;4932369;29;20573;-67
2023/02/13 08:49:20;;;;;;;12.13;5.85;;;7.60;99.90;;;;;;4932288;29;20224;-67
2023/02/13 08:51:47;;;;;;;6.53;4.30;;;7.60;99.90;;;;;;4931383;29;20239;-67
2023/02/13 08:54:14;;;;;;;4.20;3.50;;;7.60;99.90;;;;;;4932930;29;20211;-67
2023/02/13 08:56:42;;;;;;;4.20;3.35;;;7.60;99.90;;;;;;4930968;29;20216;-67
2023/02/13 08:59:09;;;;;;;6.82;6.13;;;7.60;99.90;;;;;;4933996;29;20688;-67
2023/02/13 09:01:35;;;;;;;8.23;5.15;;;7.60;99.90;;;;;;4931258;29;20240;-68
2023/02/13 09:04:02;;;;;;;5.15;4.78;;;7.70;99.90;;;;;;4926880;29;21946;-68
2023/02/13 09:06:29;;;;;;;4.03;3.38;;;7.70;99.90;;;;;;4929988;29;20209;-68
2023/02/13 09:08:56;;;;;;;3.08;2.40;;;7.70;99.90;;;;;;4926869;29;20206;-67
2023/02/13 09:11:23;;;;;;;5.78;3.35;;;7.70;99.90;;;;;;4933739;29;20591;-67
2023/02/13 09:13:53;;;;;;;7.60;5.03;;;7.70;99.90;;;;;;4929301;29;20213;-66
2023/02/13 09:16:20;;;;;;;10.75;5.97;;;7.70;99.90;;;;;;4929298;29;20727;-68
2023/02/13 09:18:47;;;;;;;4.38;3.38;;;7.70;99.90;;;;;;4921273;29;20229;-67
2023/02/13 09:21:15;;;;;;;5.70;3.53;;;7.70;99.90;;;;;;4929924;29;20262;-67
2023/02/13 09:23:42;;;;;;;11.73;4.80;;;7.70;99.90;;;;;;4931539;29;20320;-67
2023/02/13 09:26:11;;;;;;;4.93;3.55;;;7.80;99.90;;;;;;4931817;29;20658;-67
2023/02/13 09:28:38;;;;;;;2.72;2.53;;;7.80;99.90;;;;;;4930984;29;20242;-68
2023/02/13 09:31:11;;;;;;;7.55;4.95;;;7.80;99.90;;;;;;4932909;29;20605;-67
2023/02/13 09:33:38;;;;;;;10.88;6.82;;;7.80;99.90;;;;;;4926016;29;20866;-67
2023/02/13 09:36:06;;;;;;;8.88;5.30;;;7.80;99.90;;;;;;4934153;29;20220;-67
2023/02/13 09:38:32;;;;;;;6.10;5.50;;;7.80;99.90;;;;;;4931035;29;20761;-67
2023/02/13 09:41:03;;;;;;;5.22;4.07;;;7.90;99.90;;;;;;4930507;29;20283;-67
2023/02/13 09:43:36;;;;;;;3.80;3.03;;;7.90;99.90;;;;;;4931525;29;20215;-68
2023/02/13 09:46:16;;;;;;;18.92;5.47;;;7.90;99.90;;;;;;4923760;29;20240;-66
2023/02/13 09:48:46;;;;;;;10.23;4.07;;;7.90;99.90;;;;;;4929392;29;20212;-66
2023/02/13 09:51:15;;;;;;;14.85;8.85;;;8.00;99.90;;;;;;4929972;29;20251;-67
2023/02/13 09:53:49;;;;;;;4.18;3.60;;;8.00;99.90;;;;;;4931350;29;20219;-67
2023/02/13 09:56:21;;;;;;;12.23;5.65;;;8.00;99.90;;;;;;4929601;29;20644;-68
2023/02/13 09:58:52;;;;;;;7.53;5.63;;;8.00;99.90;;;;;;4930191;29;20286;-68
2023/02/13 10:01:29;;;;;;;6.22;4.05;;;8.00;99.90;;;;;;4930690;29;20320;-69
2023/02/13 10:04:24;;;;;;;5.03;3.72;;;8.10;99.90;;;;;;4929107;29;20212;-67
2023/02/13 10:07:00;;;;;;;7.35;5.13;;;8.10;99.90;;;;;;4930884;29;20202;-67
2023/02/13 10:09:33;;;;;;;7.95;3.90;;;8.10;99.90;;;;;;4930783;29;20225;-67
2023/02/13 10:12:15;;;;;;;7.78;4.72;;;8.10;99.90;;;;;;4926251;29;20232;-69
2023/02/13 10:14:48;;;;;;;9.63;5.63;;;8.20;99.90;;;;;;4928894;29;20215;-68
2023/02/13 10:17:20;;;;;;;5.22;4.72;;;8.20;99.90;;;;;;4927113;29;20225;-68
2023/02/13 10:19:50;;;;;;;6.28;4.07;;;8.20;99.90;;;;;;4930031;28;20228;-67
2023/02/13 10:22:19;;;;;;;8.82;4.50;;;8.30;99.90;;;;;;4929633;29;20237;-67
2023/02/13 10:24:50;;;;;;;9.65;5.70;;;8.30;99.90;;;;;;4928062;29;20215;-68
2023/02/13 10:27:23;;;;;;;8.85;5.93;;;8.30;99.90;;;;;;4930043;29;20219;-68
2023/02/13 10:30:05;;;;;;;7.00;6.05;;;8.40;99.90;;;;;;4927709;29;20323;-67
2023/02/13 10:32:49;;;;;;;5.28;4.72;;;8.40;99.90;;;;;;4930857;29;20264;-68
2023/02/13 10:35:23;;;;;;;7.10;4.85;;;8.30;99.90;;;;;;4924127;29;20223;-66
2023/02/13 10:37:53;;;;;;;9.32;6.38;;;8.40;99.90;;;;;;4929873;29;20223;-67
2023/02/13 10:40:20;;;;;;;10.00;5.70;;;8.40;99.90;;;;;;4928532;29;20215;-67
2023/02/13 10:42:55;;;;;;;5.18;4.53;;;8.50;99.90;;;;;;4927826;29;20255;-68
2023/02/13 10:45:36;;;;;;;8.73;4.93;;;8.50;99.90;;;;;;4930198;29;20410;-67
2023/02/13 10:48:17;;;;;;;4.78;4.03;;;8.50;99.90;;;;;;4931503;29;20216;-68
2023/02/13 10:50:54;;;;;;;14.27;7.82;;;8.50;99.90;;;;;;4929267;29;20252;-67
2023/02/13 10:53:33;;;;;;;5.53;4.90;;;8.50;99.90;;;;;;4928650;29;20215;-67
2023/02/13 10:56:13;;;;;;;5.72;4.32;;;8.60;99.90;;;;;;4923121;29;20576;-67
2023/02/13 10:58:54;;;;;;;8.10;5.70;;;8.60;99.90;;;;;;4931596;29;20258;-67
2023/02/13 11:01:30;;;;;;;7.65;5.25;;;8.60;99.90;;;;;;4928834;29;20733;-66
2023/02/13 11:04:05;;;;;;;7.90;3.58;;;8.60;99.90;;;;;;4930747;29;20220;-67
2023/02/13 11:06:35;;;;;;;10.32;5.10;;;8.60;99.90;;;;;;4928611;29;20213;-68
2023/02/13 11:09:02;;;;;;;7.57;4.22;;;8.70;99.90;;;;;;4931411;29;20204;-67
2023/02/13 11:11:30;;;;;;;10.80;5.35;;;8.70;99.90;;;;;;4934192;29;20225;-68
2023/02/13 11:14:09;;;;;;;11.48;5.40;;;8.70;99.90;;;;;;4936358;29;20239;-67
2023/02/13 11:16:42;;;;;;;7.18;4.63;;;8.80;99.90;;;;;;4935403;29;20236;-67
2023/02/13 11:19:18;;;;;;;32.70;9.75;;;8.80;99.90;;;;;;4935587;29;20243;-67
2023/02/13 11:21:46;;;;;;;7.15;4.40;;;8.90;99.90;;;;;;4934175;29;20240;-67
2023/02/13 11:24:20;;;;;;;6.45;4.47;;;8.90;99.90;;;;;;4933509;29;20215;-68
2023/02/13 11:26:52;;;;;;;10.10;4.93;;;8.90;99.90;;;;;;4935042;29;20205;-67
2023/02/13 11:29:24;;;;;;;12.48;5.85;;;8.90;99.90;;;;;;4933124;29;20212;-68
2023/02/13 11:32:17;;;;;;;9.88;6.15;;;9.00;99.90;;;;;;4934756;29;20238;-66
2023/02/13 11:34:46;;;;;;;10.80;5.85;;;9.00;99.90;;;;;;4932555;29;20211;-68
2023/02/13 11:37:22;;;;;;;5.85;5.28;;;9.00;99.90;;;;;;4933132;29;20246;-67
2023/02/13 11:39:51;;;;;;;5.05;3.90;;;9.00;99.90;;;;;;4933985;29;20220;-67
2023/02/13 11:42:26;;;;;;;9.23;4.35;;;9.10;99.90;;;;;;4934120;29;20250;-67
2023/02/13 11:44:55;;;;;;;11.00;6.50;;;9.00;99.90;;;;;;4934359;29;20214;-67
2023/02/13 11:47:37;;;;;;;8.27;4.53;;;9.00;99.90;;;;;;4931262;29;20833;-66
2023/02/13 11:50:20;;;;;;;9.57;4.60;;;9.10;99.90;;;;;;4933108;29;20341;-68
2023/02/13 11:52:54;;;;;;;4.88;3.20;;;9.10;99.90;;;;;;4932198;29;20234;-68
2023/02/13 11:55:29;;;;;;;4.60;3.55;;;9.10;99.90;;;;;;4925162;29;20233;-68
2023/02/13 11:57:58;;;;;;;3.63;3.30;;;9.10;99.90;;;;;;4933641;29;20227;-68
2023/02/13 12:00:38;;;;;;;5.70;4.22;;;9.20;99.90;;;;;;4929377;29;20302;-66
2023/02/13 12:03:27;;;;;;;4.22;3.63;;;9.20;99.90;;;;;;4930179;29;20638;-67
2023/02/13 12:06:04;;;;;;;8.18;3.72;;;9.20;99.90;;;;;;4931976;29;20696;-67
2023/02/13 12:08:33;;;;;;;14.13;4.70;;;9.20;99.90;;;;;;4933349;29;20214;-67
2023/02/13 12:11:01;;;;;;;5.55;5.03;;;9.20;99.90;;;;;;4933237;29;20255;-67
2023/02/13 12:13:32;;;;;;;6.38;3.90;;;9.20;99.90;;;;;;4923223;29;20218;-67
2023/02/13 12:16:02;;;;;;;3.55;3.22;;;9.20;99.90;;;;;;4926020;29;20308;-68
2023/02/13 12:18:32;;;;;;;8.70;4.68;;;9.30;99.90;;;;;;4931386;29;20231;-67
2023/02/13 12:21:07;;;;;;;4.90;4.45;;;9.30;99.90;;;;;;4923937;29;20709;-67
2023/02/13 12:23:42;;;;;;;9.27;4.30;;;9.30;99.90;;;;;;4931886;29;20226;-68
2023/02/13 12:26:23;;;;;;;15.20;5.32;;;9.30;99.90;;;;;;4927884;29;20207;-68
2023/02/13 12:29:17;;;;;;;3.67;3.28;;;9.30;99.90;;;;;;4930924;29;20239;-68
2023/02/13 12:32:04;;;;;;;12.02;6.40;;;9.30;99.90;;;;;;4930875;29;20263;-68
2023/02/13 12:35:01;;;;;;;8.95;5.35;;;9.40;99.90;;;;;;4932829;29;20230;-68
2023/02/13 12:37:46;;;;;;;8.68;3.83;;;9.30;99.90;;;;;;4931625;29;20207;-68
2023/02/13 12:40:30;;;;;;;8.35;3.60;;;9.40;99.90;;;;;;4926563;29;20196;-68
2023/02/13 12:43:16;;;;;;;4.00;3.00;;;9.30;99.90;;;;;;4931752;29;20238;-67
2023/02/13 12:45:49;;;;;;;14.75;6.75;;;9.30;99.90;;;;;;4932201;29;20205;-67
2023/02/13 12:48:31;;;;;;;9.55;5.60;;;9.30;99.90;;;;;;4933647;29;20207;-68
2023/02/13 12:51:07;;;;;;;6.88;3.92;;;9.40;99.90;;;;;;4929774;29;20238;-67
2023/02/13 12:53:52;;;;;;;7.82;4.85;;;9.30;99.90;;;;;;4929785;29;20203;-67
2023/02/13 12:56:40;;;;;;;6.22;4.43;;;9.30;99.90;;;;;;4931192;29;20586;-67
2023/02/13 12:59:12;;;;;;;6.32;5.63;;;9.30;99.90;;;;;;4925593;29;20265;-67
2023/02/13 13:01:57;;;;;;;5.05;3.92;;;9.30;99.90;;;;;;4931740;29;20248;-67
2023/02/13 13:04:34;;;;;;;9.90;8.25;;;9.30;99.90;;;;;;4931589;29;20218;-67
2023/02/13 13:07:17;;;;;;;3.60;3.22;;;9.30;99.90;;;;;;4927459;29;20211;-67
2023/02/13 13:10:01;;;;;;;5.47;3.45;;;9.40;99.90;;;;;;4931955;29;20214;-67
2023/02/13 13:12:38;;;;;;;7.10;3.95;;;9.40;99.90;;;;;;4929311;29;20229;-67
2023/02/13 13:15:11;;;;;;;10.40;5.80;;;9.30;99.90;;;;;;4933279;29;20582;-68
2023/02/13 13:17:52;;;;;;;8.23;6.22;;;9.30;99.90;;;;;;4932624;29;20211;-68
2023/02/13 13:20:37;;;;;;;9.38;5.05;;;9.30;99.90;;;;;;4931129;29;20298;-68
2023/02/13 13:23:10;;;;;;;6.25;5.07;;;9.30;99.90;;;;;;4931255;29;20211;-68
2023/02/13 13:25:48;;;;;;;7.63;4.20;;;9.30;99.90;;;;;;4933141;29;20219;-66
2023/02/13 13:28:17;;;;;;;11.45;7.20;;;9.30;99.90;;;;;;4932855;29;20235;-66
2023/02/13 13:30:44;;;;;;;5.72;5.03;;;9.30;99.90;;;;;;4931511;29;20236;-66
2023/02/13 13:33:15;;;;;;;11.13;8.20;;;9.30;99.90;;;;;;4932429;29;20635;-67
2023/02/13 13:35:43;;;;;;;5.57;4.85;;;9.30;99.90;;;;;;4929484;29;20239;-67
2023/02/13 13:38:16;;;;;;;5.82;4.38;;;9.30;99.90;;;;;;4929465;29;20208;-66
2023/02/13 13:40:50;;;;;;;9.48;6.10;;;9.30;99.90;;;;;;4924651;29;20840;-66
2023/02/13 13:43:26;;;;;;;6.82;4.47;;;9.20;99.90;;;;;;4929849;29;20230;-68
2023/02/13 13:46:05;;;;;;;5.93;4.38;;;9.20;99.90;;;;;;4930411;29;20233;-67
2023/02/13 13:48:59;;;;;;;7.30;5.93;;;9.30;99.90;;;;;;4928672;29;20223;-68
2023/02/13 13:51:26;;;;;;;7.55;6.25;;;9.30;99.90;;;;;;4925516;29;20334;-68
2023/02/13 13:54:19;;;;;;;9.23;3.80;;;9.30;99.90;;;;;;4931142;29;20706;-67
2023/02/13 13:57:11;;;;;;;6.78;4.25;;;9.30;99.90;;;;;;4932079;29;20239;-67
2023/02/13 14:00:22;;;;;;;6.13;4.95;;;9.30;99.90;;;;;;4930988;29;20242;-67
2023/02/13 14:02:49;;;;;;;5.45;4.68;;;9.20;99.90;;;;;;4930772;29;20207;-68
2023/02/13 14:05:24;;;;;;;8.48;4.15;;;9.20;99.90;;;;;;4931114;29;20321;-68
2023/02/13 14:07:52;;;;;;;6.72;4.70;;;9.20;99.90;;;;;;4932074;29;20282;-68
2023/02/13 14:11:08;;;;;;;6.63;3.85;;;9.20;99.90;;;;;;4925967;29;20213;-67
2023/02/13 14:13:38;;;;;;;7.15;4.57;;;9.20;99.90;;;;;;4925949;29;20634;-67
2023/02/13 14:16:09;;;;;;;10.23;5.03;;;9.10;99.90;;;;;;4931112;29;20740;-69
2023/02/13 14:18:37;;;;;;;10.80;4.65;;;9.10;99.90;;;;;;4931374;29;20277;-66
2023/02/13 14:21:04;;;;;;;4.80;4.18;;;9.10;99.90;;;;;;4926125;29;20310;-68
2023/02/13 14:23:52;;;;;;;7.57;5.30;;;9.10;99.90;;;;;;4926092;29;20230;-66
2023/02/13 14:26:30;;;;;;;5.60;4.32;;;9.10;99.90;;;;;;4925268;29;20264;-67
2023/02/13 14:29:11;;;;;;;6.63;4.38;;;9.10;99.90;;;;;;4931685;29;20207;-67
2023/02/13 14:31:41;;;;;;;4.57;4.18;;;9.10;99.90;;;;;;4924286;29;20234;-67
2023/02/13 14:34:19;;;;;;;4.68;4.30;;;9.10;99.90;;;;;;4930535;29;20229;-66
2023/02/13 14:36:48;;;;;;;4.75;4.38;;;9.10;99.90;;;;;;4922451;29;20247;-67
2023/02/13 14:39:25;;;;;;;3.95;3.58;;;9.10;99.90;;;;;;4931710;29;20248;-68
2023/02/13 14:42:00;;;;;;;4.93;3.35;;;9.00;99.90;;;;;;4930423;29;20259;-67
2023/02/13 14:44:33;;;;;;;13.48;4.53;;;8.90;99.90;;;;;;4931781;29;20293;-67
2023/02/13 14:47:03;;;;;;;9.57;4.10;;;8.90;99.90;;;;;;4923873;29;20556;-67
2023/02/13 14:49:34;;;;;;;7.50;4.38;;;8.90;99.90;;;;;;4932654;29;20205;-67
2023/02/13 14:52:04;;;;;;;5.13;4.10;;;8.90;99.90;;;;;;4927379;29;20303;-67
2023/02/13 14:54:34;;;;;;;10.60;4.95;;;8.90;99.90;;;;;;4935411;29;20223;-68
2023/02/13 14:57:08;;;;;;;5.45;4.03;;;8.90;99.90;;;;;;4919546;29;20218;-67
2023/02/13 14:59:41;;;;;;;5.68;3.60;;;8.90;99.90;;;;;;4934865;29;20242;-67
2023/02/13 15:02:16;;;;;;;5.40;4.45;;;8.90;99.90;;;;;;4931481;29;20849;-67
2023/02/13 15:04:46;;;;;;;5.03;4.65;;;8.90;99.90;;;;;;4932249;29;20224;-67
2023/02/13 15:07:16;;;;;;;7.18;3.90;;;8.90;99.90;;;;;;4935328;29;20213;-67
2023/02/13 15:09:49;;;;;;;7.70;4.80;;;8.90;99.90;;;;;;4935781;29;20214;-67
2023/02/13 15:12:35;;;;;;;6.57;4.70;;;8.90;99.90;;;;;;4932437;29;20244;-68
2023/02/13 15:15:23;;;;;;;5.65;4.85;;;8.90;99.90;;;;;;4929463;29;20205;-67
2023/02/13 15:17:51;;;;;;;7.22;5.10;;;8.80;99.90;;;;;;4933455;29;20686;-68
2023/02/13 15:20:24;;;;;;;7.80;5.03;;;8.80;99.90;;;;;;4930319;29;20338;-66
2023/02/13 15:22:51;;;;;;;9.07;5.00;;;8.80;99.90;;;;;;4935616;29;20583;-67
2023/02/13 15:25:23;;;;;;;7.03;4.70;;;8.80;99.90;;;;;;4932954;29;20814;-67
2023/02/13 15:27:53;;;;;;;12.85;7.68;;;8.80;99.90;;;;;;4935845;29;20220;-66
2023/02/13 15:30:23;;;;;;;11.85;6.70;;;8.80;99.90;;;;;;4933744;29;20218;-67
2023/02/13 15:32:55;;;;;;;10.40;6.78;;;8.80;99.90;;;;;;4933559;29;20208;-66
2023/02/13 15:35:24;;;;;;;5.45;4.90;;;8.70;99.90;;;;;;4933108;29;20213;-67
2023/02/13 15:37:51;;;;;;;9.18;6.40;;;8.70;99.90;;;;;;4935790;29;20204;-67
2023/02/13 15:40:24;;;;;;;11.20;6.90;;;8.70;99.90;;;;;;4932958;29;20232;-69
2023/02/13 15:42:52;;;;;;;13.45;8.20;;;8.70;99.90;;;;;;4931958;29;20237;-65
2023/02/13 15:45:23;;;;;;;6.82;5.95;;;8.70;99.90;;;;;;4932436;29;20320;-67
2023/02/13 15:47:50;;;;;;;8.77;6.97;;;8.60;99.90;;;;;;4932327;29;20215;-68
2023/02/13 15:50:21;;;;;;;7.60;5.65;;;8.60;99.90;;;;;;4932597;29;20212;-68
2023/02/13 15:52:48;;;;;;;14.52;7.78;;;8.60;99.90;;;;;;4932785;29;20215;-66
2023/02/13 15:55:20;;;;;;;16.15;8.05;;;8.60;99.90;;;;;;4933191;29;20235;-66
2023/02/13 15:57:47;;;;;;;8.52;5.50;;;8.60;99.90;;;;;;4931032;29;20221;-68
2023/02/13 16:00:24;;;;;;;7.28;5.10;;;8.60;99.90;;;;;;4932317;29;20225;-67
2023/02/13 16:02:53;;;;;;;10.15;5.80;;;8.60;99.90;;;;;;4932996;29;20299;-66
2023/02/13 16:05:20;;;;;;;12.32;5.40;;;8.50;99.90;;;;;;4932814;29;20646;-66
2023/02/13 16:07:48;;;;;;;7.40;6.15;;;8.50;99.90;;;;;;4933587;29;20217;-67
2023/02/13 16:10:15;;;;;;;10.32;7.85;;;8.50;99.90;;;;;;4931560;29;20568;-68
2023/02/13 16:12:46;;;;;;;9.85;5.43;;;8.50;99.90;;;;;;4933925;29;20215;-67
2023/02/13 16:15:16;;;;;;;10.07;6.57;;;8.40;99.90;;;;;;4932178;29;20209;-67
2023/02/13 16:17:47;;;;;;;11.07;5.10;;;8.40;99.90;;;;;;4933627;29;20224;-68
2023/02/13 16:20:22;;;;;;;8.80;5.80;;;8.40;99.90;;;;;;4926906;29;20244;-67
2023/02/13 16:22:52;;;;;;;10.93;8.18;;;8.40;99.90;;;;;;4934128;29;20208;-68
2023/02/13 16:25:24;;;;;;;12.48;7.57;;;8.40;99.90;;;;;;4931081;29;20223;-68
2023/02/13 16:27:53;;;;;;;15.07;7.10;;;8.30;99.90;;;;;;4932300;29;20556;-66
2023/02/13 16:30:26;;;;;;;11.68;7.65;;;8.30;99.90;;;;;;4931452;29;20674;-68
2023/02/13 16:33:12;;;;;;;12.65;9.23;;;8.30;99.90;;;;;;4937365;29;20583;-66
2023/02/13 16:35:41;;;;;;;7.32;6.50;;;8.30;99.90;;;;;;4930834;29;20214;-66
2023/02/13 16:38:28;;;;;;;11.32;6.50;;;8.30;99.90;;;;;;4932143;29;20221;-68
2023/02/13 16:40:56;;;;;;;15.10;9.20;;;8.30;99.90;;;;;;4929294;29;20294;-68
2023/02/13 16:43:43;;;;;;;19.27;9.63;;;8.30;99.90;;;;;;4932770;29;20686;-67
2023/02/13 16:46:25;;;;;;;12.00;8.90;;;8.30;99.90;;;;;;4930032;29;20215;-68
2023/02/13 16:49:05;;;;;;;20.52;9.85;;;8.30;99.90;;;;;;4933115;29;20208;-67
2023/02/13 16:51:36;;;;;;;16.00;8.05;;;8.20;99.90;;;;;;4933667;29;20472;-67
2023/02/13 16:54:05;;;;;;;16.40;7.95;;;8.30;99.90;;;;;;4932628;29;20544;-68
2023/02/13 16:56:39;;;;;;;20.35;8.43;;;8.20;99.90;;;;;;4932454;29;20297;-67
2023/02/13 16:59:21;;;;;;;19.13;9.50;;;8.20;99.90;;;;;;4921731;29;20208;-67
2023/02/13 17:01:48;;;;;;;8.43;6.13;;;8.20;99.90;;;;;;4931897;29;20248;-68
2023/02/13 17:04:21;;;;;;;15.65;7.30;;;8.20;99.90;;;;;;4932611;29;20216;-68
2023/02/13 17:06:48;;;;;;;14.52;8.15;;;8.20;99.90;;;;;;4926828;29;21117;-67
2023/02/13 17:09:15;;;;;;;14.45;9.07;;;8.20;99.90;;;;;;4931464;29;20220;-68
2023/02/13 17:11:42;;;;;;;12.13;6.10;;;8.20;99.90;;;;;;4931178;29;20312;-67
2023/02/13 17:14:09;;;;;;;8.13;7.28;;;8.20;99.90;;;;;;4931834;29;20212;-68
2023/02/13 17:16:36;;;;;;;9.77;8.38;;;8.10;99.90;;;;;;4930792;29;20235;-67
2023/02/13 17:19:02;;;;;;;16.77;8.65;;;8.10;99.90;;;;;;4930967;29;20291;-67
2023/02/13 17:21:31;;;;;;;10.65;6.85;;;8.20;99.90;;;;;;4930140;29;20235;-68
2023/02/13 17:23:58;;;;;;;15.75;8.23;;;8.10;99.90;;;;;;4931148;29;20221;-68
2023/02/13 17:26:25;;;;;;;10.45;7.13;;;8.10;99.90;;;;;;4931078;29;20980;-67
2023/02/13 17:28:51;;;;;;;13.90;7.55;;;8.10;99.90;;;;;;4930861;29;20223;-67
2023/02/13 17:31:18;;;;;;;16.77;8.23;;;8.10;99.90;;;;;;4932245;29;20232;-66
2023/02/13 17:33:45;;;;;;;16.42;9.32;;;8.10;99.90;;;;;;4930767;29;20234;-67
2023/02/13 17:36:13;;;;;;;8.40;7.20;;;8.10;99.90;;;;;;4932293;29;20209;-68
2023/02/13 17:38:41;;;;;;;10.55;7.47;;;8.10;99.90;;;;;;4930380;29;20310;-68
2023/02/13 17:41:13;;;;;;;11.80;5.53;;;8.10;99.90;;;;;;4928960;29;20233;-70
2023/02/13 17:43:40;;;;;;;13.02;8.73;;;8.10;99.90;;;;;;4930898;29;20207;-67
2023/02/13 17:46:07;;;;;;;15.80;7.07;;;8.10;99.90;;;;;;4928864;29;20577;-66
2023/02/13 17:48:34;;;;;;;10.73;8.15;;;8.00;99.90;;;;;;4928406;29;20239;-69
2023/02/13 17:51:00;;;;;;;10.65;7.22;;;8.10;99.90;;;;;;4930754;29;20232;-67
2023/02/13 17:53:29;;;;;;;11.00;8.40;;;8.10;99.90;;;;;;4932097;29;20429;-67
2023/02/13 17:55:58;;;;;;;11.00;6.95;;;8.00;99.90;;;;;;4935502;28;20685;-67
2023/02/13 17:58:25;;;;;;;10.95;9.45;;;8.00;99.90;;;;;;4931558;29;20216;-67
2023/02/13 18:00:52;;;;;;;12.95;7.82;;;8.00;99.90;;;;;;4931364;29;20248;-67
2023/02/13 18:03:19;;;;;;;12.48;8.00;;;8.00;99.90;;;;;;4929787;29;20371;-68
2023/02/13 18:05:47;;;;;;;11.18;9.77;;;8.00;99.90;;;;;;4931809;29;20561;-67
2023/02/13 18:08:14;;;;;;;16.15;7.38;;;8.00;99.90;;;;;;4930540;29;20209;-68
2023/02/13 18:10:41;;;;;;;19.35;8.90;;;8.00;99.90;;;;;;4930723;29;20740;-68
2023/02/13 18:13:09;;;;;;;10.10;7.82;;;8.00;99.90;;;;;;4928595;29;20213;-67
2023/02/13 18:15:39;;;;;;;12.70;7.25;;;7.90;99.90;;;;;;4928693;29;20209;-67
2023/02/13 18:18:06;;;;;;;9.70;6.30;;;8.00;99.90;;;;;;4930067;29;20216;-67
2023/02/13 18:20:33;;;;;;;11.02;8.90;;;7.90;99.90;;;;;;4930347;29;20253;-67